Time;durP1;ratioP1;P1;durP2;ratioP2;P2;SDS_P1;SDS_P2;PMS_P1;PMS_P2;Temp;Humidity;BMP_temperature;BMP_pressure;BME280_temperature;BME280_humidity;BME280_pressure;Samples;Min_cycle;Max_cycle;Signal;HPM_P1;HPM_P2
2022/06/11 00:00:23;;;;;;;8.18;4.82;;;13.20;59.10;;;;;;10213892;29;20209;-84
2022/06/11 00:05:44;;;;;;;5.10;3.53;;;13.10;54.70;;;;;;10213385;29;20381;-84
2022/06/11 00:11:07;;;;;;;6.32;3.53;;;13.10;58.50;;;;;;10160935;29;20203;-84
2022/06/11 00:16:29;;;;;;;8.18;3.50;;;13.10;55.50;;;;;;10158455;29;20238;-83
2022/06/11 00:21:53;;;;;;;8.27;4.40;;;13.00;58.50;;;;;;10171486;29;20197;-84
2022/06/11 00:27:15;;;;;;;7.28;4.07;;;13.10;50.50;;;;;;10193366;29;20205;-84
2022/06/11 00:32:40;;;;;;;6.13;4.05;;;13.10;53.60;;;;;;10183333;29;20207;-84
2022/06/11 00:38:03;;;;;;;6.90;4.38;;;13.00;33.20;;;;;;10196610;29;20297;-84
2022/06/11 00:43:27;;;;;;;8.75;4.75;;;12.90;30.80;;;;;;10183237;29;20211;-83
2022/06/11 00:48:49;;;;;;;9.18;5.80;;;12.70;44.90;;;;;;10183194;29;20255;-84
2022/06/11 00:54:17;;;;;;;9.25;6.10;;;12.60;42.80;;;;;;10253891;28;20245;-84
2022/06/11 00:59:43;;;;;;;9.75;5.18;;;12.50;52.80;;;;;;10261737;28;20216;-84
2022/06/11 01:05:06;;;;;;;7.40;4.97;;;12.40;61.10;;;;;;10284909;28;20216;-84
2022/06/11 01:11:01;;;;;;;8.13;5.38;;;12.40;57.60;;;;;;10298335;28;20204;-84
2022/06/11 01:16:58;;;;;;;8.43;5.32;;;12.40;61.80;;;;;;10260922;28;20462;-84
2022/06/11 01:22:46;;;;;;;8.00;4.40;;;12.30;60.10;;;;;;10151009;29;20297;-84
2022/06/11 01:28:48;;;;;;;8.93;5.15;;;12.20;49.00;;;;;;10151201;29;20204;-84
2022/06/11 01:34:09;;;;;;;7.18;4.28;;;12.20;51.70;;;;;;10151126;29;20305;-84
2022/06/11 01:39:36;;;;;;;6.25;4.18;;;12.10;44.10;;;;;;10153697;29;20242;-84
2022/06/11 01:45:19;;;;;;;6.10;4.28;;;12.10;43.50;;;;;;10153666;29;20606;-84
2022/06/11 01:50:45;;;;;;;6.63;4.20;;;12.00;44.80;;;;;;10137363;29;20244;-84
2022/06/11 01:56:09;;;;;;;7.72;4.45;;;12.00;53.00;;;;;;10157484;29;20306;-84
2022/06/11 02:02:01;;;;;;;6.28;4.50;;;12.00;67.00;;;;;;10250098;28;20213;-84
2022/06/11 02:07:32;;;;;;;8.30;4.57;;;12.10;51.60;;;;;;10255075;28;20206;-84
2022/06/11 02:13:07;;;;;;;5.45;4.10;;;12.00;64.80;;;;;;10260070;29;20421;-84
2022/06/11 02:18:31;;;;;;;7.65;5.18;;;12.00;30.70;;;;;;10282568;28;20254;-84
2022/06/11 02:23:52;;;;;;;8.82;4.55;;;;;;;;;;10267271;28;20202;-84
2022/06/11 02:29:16;;;;;;;6.38;4.95;;;11.90;40.30;;;;;;10301781;28;20214;-84
2022/06/11 02:34:44;;;;;;;6.22;4.90;;;11.70;52.80;;;;;;10280348;28;20223;-84
2022/06/11 02:40:11;;;;;;;8.38;5.50;;;11.70;55.30;;;;;;10280435;28;20572;-84
2022/06/11 02:45:33;;;;;;;8.02;5.05;;;11.80;58.70;;;;;;10253208;28;20209;-84
2022/06/11 02:50:54;;;;;;;7.57;5.05;;;11.80;63.60;;;;;;10279332;28;20243;-84
2022/06/11 02:56:16;;;;;;;8.25;5.18;;;11.80;64.70;;;;;;10293076;28;20290;-84
2022/06/11 03:01:38;;;;;;;8.85;5.30;;;11.80;60.10;;;;;;10279371;28;20250;-84
2022/06/11 03:07:01;;;;;;;11.60;5.22;;;11.80;59.70;;;;;;10279928;28;20197;-84
2022/06/11 03:12:22;;;;;;;8.13;5.47;;;11.80;53.40;;;;;;10279991;28;20205;-84
2022/06/11 03:17:45;;;;;;;11.07;6.60;;;11.90;58.80;;;;;;10278470;28;20548;-84
2022/06/11 03:23:07;;;;;;;8.38;5.63;;;11.90;58.00;;;;;;10281237;28;20277;-84
2022/06/11 03:28:30;;;;;;;7.82;5.82;;;12.00;78.20;;;;;;10285777;28;20289;-83
2022/06/11 03:33:51;;;;;;;11.05;5.28;;;12.20;74.70;;;;;;10251010;28;20428;-84
2022/06/11 03:39:14;;;;;;;8.17;5.03;;;12.40;75.70;;;;;;10264702;28;20196;-83
2022/06/11 03:44:35;;;;;;;7.85;5.18;;;12.70;68.50;;;;;;10278643;28;20196;-84
2022/06/11 03:49:57;;;;;;;6.13;5.20;;;13.00;56.80;;;;;;10276777;28;20204;-84
2022/06/11 03:55:19;;;;;;;6.68;4.70;;;13.10;55.40;;;;;;10276698;28;20236;-84
2022/06/11 04:06:37;;;;;;;7.90;4.65;;;13.60;63.60;;;;;;10278465;28;20497;-83
2022/06/11 04:12:00;;;;;;;5.40;3.63;;;13.70;75.70;;;;;;10236896;29;20198;-83
2022/06/11 04:17:28;;;;;;;4.90;3.65;;;13.90;64.60;;;;;;10222928;29;20235;-83
2022/06/11 04:22:51;;;;;;;5.15;3.45;;;14.10;56.30;;;;;;10240285;29;20455;-82
2022/06/11 04:28:17;;;;;;;6.53;3.92;;;14.30;55.10;;;;;;10277216;28;20378;-83
2022/06/11 04:33:38;;;;;;;6.00;3.65;;;14.40;36.40;;;;;;10276697;28;20385;-84
2022/06/11 04:38:59;;;;;;;5.78;3.08;;;14.50;34.80;;;;;;10262555;28;20236;-84
2022/06/11 04:44:21;;;;;;;6.07;3.17;;;14.50;41.70;;;;;;10248305;28;20202;-84
2022/06/11 04:49:43;;;;;;;6.03;3.72;;;14.50;32.70;;;;;;10261955;28;20209;-83
2022/06/11 04:55:04;;;;;;;4.85;2.30;;;14.60;21.70;;;;;;10274522;28;20243;-83
2022/06/11 05:00:28;;;;;;;6.90;2.53;;;14.70;4.00;;;;;;10261357;28;20210;-82
2022/06/11 05:05:50;;;;;;;3.60;1.92;;;14.90;1.00;;;;;;10261135;28;20201;-85
2022/06/11 05:11:11;;;;;;;3.80;1.80;;;15.20;1.00;;;;;;10290479;28;20275;-84
2022/06/11 05:16:34;;;;;;;4.07;2.00;;;15.70;1.00;;;;;;10274781;28;20300;-84
2022/06/11 05:21:56;;;;;;;5.65;2.22;;;16.10;1.00;;;;;;10274767;28;20509;-83
2022/06/11 05:27:22;;;;;;;3.78;1.73;;;16.30;1.00;;;;;;10301038;28;20217;-83
2022/06/11 05:32:45;;;;;;;3.72;1.85;;;16.60;1.00;;;;;;10237240;28;20202;-84
2022/06/11 05:38:14;;;;;;;4.40;2.20;;;16.90;18.00;;;;;;10234220;29;20558;-84
2022/06/11 05:43:35;;;;;;;14.25;2.63;;;17.00;53.80;;;;;;10236433;29;20275;-84
2022/06/11 05:49:01;;;;;;;1.50;1.30;;;17.00;53.10;;;;;;10223429;29;20211;-84
2022/06/11 05:54:26;;;;;;;3.80;1.92;;;17.00;1.00;;;;;;10257968;28;20241;-84
2022/06/11 05:59:52;;;;;;;4.55;1.58;;;17.10;1.00;;;;;;10267976;28;20257;-85
2022/06/11 06:05:17;;;;;;;3.53;2.10;;;17.30;1.00;;;;;;10281265;28;20434;-84
2022/06/11 06:10:41;;;;;;;4.85;1.88;;;17.50;1.00;;;;;;10261982;28;20241;-84
2022/06/11 06:16:03;;;;;;;6.20;1.55;;;17.70;1.00;;;;;;10267261;28;20250;-85
2022/06/11 06:21:28;;;;;;;7.30;1.98;;;17.80;1.00;;;;;;10267317;28;20187;-85
2022/06/11 06:26:49;;;;;;;14.30;4.78;;;18.10;1.00;;;;;;10266855;28;20278;-84
2022/06/11 06:32:10;;;;;;;3.40;1.70;;;18.40;1.00;;;;;;10280653;28;20199;-85
2022/06/11 06:37:33;;;;;;;3.05;1.33;;;18.80;1.00;;;;;;10279865;28;20250;-84
2022/06/11 06:42:54;;;;;;;4.68;1.58;;;19.20;1.00;;;;;;10253228;28;20270;-85
2022/06/11 06:48:16;;;;;;;5.03;1.80;;;19.80;1.00;;;;;;10280034;28;20290;-84
2022/06/11 06:53:42;;;;;;;3.45;1.42;;;20.50;1.00;;;;;;10265931;28;20239;-85
2022/06/11 06:59:05;;;;;;;4.07;1.45;;;21.20;1.00;;;;;;10266174;28;20231;-84
2022/06/11 07:04:26;;;;;;;4.05;1.23;;;21.80;1.00;;;;;;10251931;28;20392;-85
2022/06/11 07:09:53;;;;;;;7.05;2.22;;;22.30;1.00;;;;;;10274994;28;20207;-85
2022/06/11 07:15:15;;;;;;;10.98;1.55;;;22.70;99.90;;;;;;10279098;28;20223;-84
2022/06/11 07:20:37;;;;;;;4.63;1.17;;;23.10;1.00;;;;;;10278872;28;20195;-85
2022/06/11 07:25:59;;;;;;;4.15;1.23;;;23.60;99.90;;;;;;10302263;28;20477;-85
2022/06/11 07:31:21;;;;;;;2.58;1.20;;;23.90;1.00;;;;;;10274759;28;20282;-84
2022/06/11 07:36:45;;;;;;;4.47;1.63;;;24.10;1.00;;;;;;10279309;28;20223;-85
2022/06/11 07:42:07;;;;;;;7.15;2.00;;;24.50;1.00;;;;;;10264146;28;20209;-85
2022/06/11 07:53:11;;;;;;;6.43;1.42;;;25.20;1.00;;;;;;10263129;28;20234;-85
2022/06/11 07:58:32;;;;;;;4.35;1.20;;;25.40;99.90;;;;;;10277039;28;20255;-85
2022/06/11 08:03:54;;;;;;;4.13;1.38;;;25.70;99.90;;;;;;10263609;28;20207;-85
2022/06/11 08:09:15;;;;;;;9.40;1.90;;;25.80;99.90;;;;;;10277596;28;20206;-85
2022/06/11 08:14:36;;;;;;;4.80;1.80;;;25.80;99.90;;;;;;10291395;28;20381;-84
2022/06/11 08:19:58;;;;;;;4.53;1.50;;;26.30;99.90;;;;;;10276922;28;20549;-85
2022/06/11 08:25:21;;;;;;;5.18;1.20;;;26.40;88.10;;;;;;10252548;28;20244;-83
2022/06/11 08:30:44;;;;;;;7.38;1.88;;;26.80;99.90;;;;;;10291623;28;20231;-84
2022/06/11 08:36:05;;;;;;;5.88;1.90;;;27.00;99.90;;;;;;10248304;28;20231;-84
2022/06/11 08:41:38;;;;;;;5.75;1.92;;;27.40;78.40;;;;;;10261683;28;20242;-85
2022/06/11 08:47:07;;;;;;;10.20;2.10;;;27.70;2.10;;;;;;10277667;28;20278;-85
2022/06/11 08:52:29;;;;;;;5.05;1.65;;;27.90;59.60;;;;;;10262344;29;20247;-84
2022/06/11 08:58:15;;;;;;;4.35;1.80;;;28.00;1.00;;;;;;10248119;28;20560;-85
2022/06/11 09:04:04;;;;;;;31.88;2.90;;;28.20;1.00;;;;;;10261218;28;20242;-84
2022/06/11 09:10:02;;;;;;;5.43;1.48;;;28.40;1.00;;;;;;10260527;28;20202;-84
2022/06/11 09:15:58;;;;;;;4.13;1.60;;;28.40;1.00;;;;;;10219286;29;20251;-87
2022/06/11 09:21:47;;;;;;;18.40;2.63;;;28.40;1.00;;;;;;10035546;29;20244;-84
2022/06/11 09:27:20;;;;;;;18.58;2.63;;;28.70;1.00;;;;;;10046173;29;20262;-86
2022/06/11 09:32:44;;;;;;;5.60;1.70;;;28.00;1.00;;;;;;10051075;29;20301;-84
2022/06/11 09:38:25;;;;;;;6.72;1.40;;;27.80;1.00;;;;;;10022904;29;20315;-86
2022/06/11 09:43:59;;;;;;;11.75;2.20;;;28.10;1.00;;;;;;10051950;29;20513;-84
2022/06/11 09:49:45;;;;;;;3.17;1.52;;;28.20;1.00;;;;;;10086204;29;20214;-86
2022/06/11 09:55:29;;;;;;;4.72;1.50;;;28.80;1.00;;;;;;10182691;28;20269;-86
2022/06/11 10:00:57;;;;;;;3.05;1.30;;;28.70;1.00;;;;;;10280019;28;20206;-84
2022/06/11 10:06:29;;;;;;;2.58;1.23;;;29.10;1.00;;;;;;10273035;28;20217;-83
2022/06/11 10:12:14;;;;;;;4.68;1.13;;;29.00;1.00;;;;;;10303128;28;20227;-86
2022/06/11 10:17:54;;;;;;;3.47;1.30;;;29.40;1.00;;;;;;10289023;28;20294;-85
2022/06/11 10:23:33;;;;;;;2.40;1.33;;;30.00;1.00;;;;;;10288427;28;20406;-85
2022/06/11 10:29:13;;;;;;;4.18;1.23;;;29.70;1.00;;;;;;10294240;28;20211;-82
2022/06/11 10:34:39;;;;;;;3.85;1.27;;;29.60;1.00;;;;;;10272029;28;20203;-85
2022/06/11 10:40:21;;;;;;;3.40;1.85;;;29.10;1.00;;;;;;10266322;28;20242;-85
2022/06/11 10:45:45;;;;;;;2.45;1.13;;;29.50;1.00;;;;;;10253109;28;20199;-85
2022/06/11 10:51:19;;;;;;;3.40;1.48;;;29.10;1.00;;;;;;10265797;28;20537;-84
2022/06/11 10:56:47;;;;;;;2.85;1.30;;;29.40;1.00;;;;;;10239516;29;20255;-85
2022/06/11 11:02:27;;;;;;;8.00;1.55;;;;;;;;;;10239297;29;20278;-84
2022/06/11 11:07:55;;;;;;;6.88;1.15;;;30.40;1.00;;;;;;10283471;28;20200;-83
2022/06/11 11:13:47;;;;;;;2.83;1.55;;;30.40;1.00;;;;;;10284810;28;20195;-82
2022/06/11 11:19:23;;;;;;;3.00;2.15;;;29.50;1.00;;;;;;10274186;28;20238;-83
2022/06/11 11:24:49;;;;;;;2.63;1.15;;;29.40;1.00;;;;;;10285314;28;20274;-82
2022/06/11 11:30:14;;;;;;;9.95;1.60;;;28.70;1.00;;;;;;10300188;28;20246;-83
2022/06/11 11:35:40;;;;;;;2.30;1.10;;;28.30;1.00;;;;;;10264902;28;20434;-85
2022/06/11 11:41:03;;;;;;;2.10;0.90;;;28.00;1.00;;;;;;10279884;28;20486;-85
2022/06/11 11:46:30;;;;;;;1.85;1.40;;;27.80;1.00;;;;;;10266417;28;20195;-85
2022/06/11 11:51:52;;;;;;;2.00;1.02;;;27.70;1.00;;;;;;10278351;28;20545;-85
2022/06/11 11:57:14;;;;;;;4.43;1.77;;;27.30;1.00;;;;;;10263567;28;20266;-85
2022/06/11 12:02:43;;;;;;;2.38;1.50;;;26.90;1.00;;;;;;10264395;28;20200;-84
2022/06/11 12:08:17;;;;;;;3.20;1.65;;;26.50;1.00;;;;;;10276378;28;20213;-85
2022/06/11 12:13:42;;;;;;;4.70;1.45;;;26.20;1.00;;;;;;10276630;28;20195;-85
2022/06/11 12:19:13;;;;;;;7.15;2.33;;;25.80;1.00;;;;;;10262748;29;20235;-84
2022/06/11 12:24:39;;;;;;;6.68;2.40;;;25.40;1.00;;;;;;10277058;28;20234;-84
2022/06/11 12:30:05;;;;;;;4.28;1.55;;;25.20;1.00;;;;;;10299015;28;20278;-85
2022/06/11 12:35:45;;;;;;;3.88;1.50;;;25.20;1.00;;;;;;10262307;28;20494;-84
2022/06/11 12:41:15;;;;;;;3.03;1.83;;;25.30;1.00;;;;;;10275887;28;20278;-85
2022/06/11 12:46:57;;;;;;;2.42;1.77;;;25.40;1.00;;;;;;10248621;28;20205;-85
2022/06/11 12:52:42;;;;;;;3.63;2.33;;;25.30;1.00;;;;;;10261830;28;20230;-85
2022/06/11 12:58:26;;;;;;;2.47;2.00;;;25.20;1.00;;;;;;10235043;29;20417;-85
2022/06/11 13:04:10;;;;;;;4.13;1.63;;;25.40;1.00;;;;;;10234883;29;20278;-84
2022/06/11 13:09:58;;;;;;;1.85;1.20;;;25.80;1.00;;;;;;10271922;28;20199;-84
2022/06/11 13:15:28;;;;;;;3.53;1.67;;;26.20;1.00;;;;;;10278112;28;20230;-84
2022/06/11 13:21:26;;;;;;;2.38;1.23;;;26.70;1.00;;;;;;10261109;28;20218;-85
2022/06/11 13:26:51;;;;;;;2.08;1.30;;;26.90;1.00;;;;;;10275211;28;20199;-84
2022/06/11 13:32:23;;;;;;;5.32;1.48;;;27.00;1.00;;;;;;10250880;28;20211;-85
2022/06/11 13:37:48;;;;;;;2.60;2.28;;;26.90;1.00;;;;;;10260503;28;20235;-85
2022/06/11 13:43:17;;;;;;;4.13;2.75;;;26.40;1.00;;;;;;10247077;28;20203;-85
2022/06/11 13:48:46;;;;;;;5.60;1.85;;;25.90;1.00;;;;;;10261898;28;20207;-85
2022/06/11 14:00:25;;;;;;;5.13;1.75;;;25.60;1.00;;;;;;10263135;28;20235;-85
2022/06/11 14:05:50;;;;;;;5.47;1.73;;;25.60;1.00;;;;;;10260782;28;20283;-84
2022/06/11 14:11:36;;;;;;;2.97;1.73;;;25.40;1.00;;;;;;10265029;28;20206;-82
2022/06/11 14:16:59;;;;;;;4.75;1.80;;;25.50;1.00;;;;;;10268222;28;20469;-84
2022/06/11 14:22:43;;;;;;;2.50;1.60;;;25.40;1.00;;;;;;10295005;28;20203;-84
2022/06/11 14:28:16;;;;;;;3.05;1.67;;;25.30;1.00;;;;;;10305399;28;20209;-85
2022/06/11 14:34:12;;;;;;;4.68;1.70;;;25.10;1.00;;;;;;10280191;28;20203;-84
2022/06/11 14:39:36;;;;;;;4.43;1.70;;;25.00;1.00;;;;;;10253440;28;20227;-85
2022/06/11 14:45:37;;;;;;;2.47;1.45;;;24.80;1.00;;;;;;10253170;28;20254;-84
2022/06/11 14:51:04;;;;;;;2.70;2.05;;;24.60;1.00;;;;;;10130349;29;20267;-83
2022/06/11 14:56:34;;;;;;;3.00;1.60;;;24.50;1.00;;;;;;10131117;29;20248;-85
2022/06/11 15:02:12;;;;;;;3.28;1.90;;;24.40;1.00;;;;;;10144462;29;20257;-85
2022/06/11 15:07:56;;;;;;;3.65;2.40;;;24.30;1.00;;;;;;10149441;29;20466;-85
2022/06/11 15:13:20;;;;;;;6.03;3.05;;;24.20;16.60;;;;;;10124094;29;20235;-85
2022/06/11 15:18:48;;;;;;;4.80;2.50;;;24.20;99.90;;;;;;10151387;29;20237;-85
2022/06/11 15:24:24;;;;;;;2.70;1.60;;;24.20;99.90;;;;;;10197913;29;20208;-85
2022/06/11 15:29:47;;;;;;;2.55;1.30;;;24.30;99.90;;;;;;10311102;28;20203;-83
2022/06/11 15:35:29;;;;;;;2.75;1.60;;;24.30;99.90;;;;;;10258995;28;20190;-84
2022/06/11 15:40:54;;;;;;;3.22;2.90;;;24.20;1.00;;;;;;10285464;28;20210;-83
2022/06/11 15:46:28;;;;;;;5.63;2.88;;;24.10;1.00;;;;;;10274208;28;20578;-84
2022/06/11 15:52:09;;;;;;;6.30;1.67;;;24.00;1.00;;;;;;10270939;29;20239;-83
2022/06/11 15:57:32;;;;;;;4.40;1.73;;;23.80;1.00;;;;;;10280629;28;20620;-83
2022/06/11 16:03:35;;;;;;;3.63;1.52;;;23.80;1.00;;;;;;10272882;28;20199;-83
2022/06/11 16:09:03;;;;;;;3.22;1.65;;;23.50;1.00;;;;;;10270877;28;20210;-84
2022/06/11 16:14:35;;;;;;;2.08;1.38;;;23.50;94.80;;;;;;10260977;28;20320;-83
2022/06/11 16:20:20;;;;;;;1.63;1.45;;;23.40;99.90;;;;;;10272090;28;20227;-83
2022/06/11 16:25:44;;;;;;;3.58;2.08;;;;;;;;;;10303141;28;20190;-83
2022/06/11 16:31:06;;;;;;;5.63;2.78;;;23.30;99.90;;;;;;10269015;28;20286;-83
2022/06/11 16:36:37;;;;;;;4.50;2.72;;;23.30;99.90;;;;;;10283144;28;20226;-83
2022/06/11 16:47:46;;;;;;;5.05;2.10;;;23.10;37.80;;;;;;10269264;28;20498;-82
2022/06/11 16:59:00;;;;;;;1.90;1.70;;;23.10;1.00;;;;;;10283242;28;20290;-84
2022/06/11 17:04:27;;;;;;;2.65;1.90;;;23.00;99.90;;;;;;10276678;28;20195;-84
2022/06/11 17:09:50;;;;;;;2.78;1.73;;;22.90;1.00;;;;;;10220315;29;20204;-84
2022/06/11 17:15:13;;;;;;;2.25;1.50;;;22.90;99.90;;;;;;10225580;29;20227;-83
2022/06/11 17:20:38;;;;;;;3.72;1.70;;;22.80;1.00;;;;;;10238060;29;20306;-83
2022/06/11 17:26:06;;;;;;;5.50;2.30;;;22.70;1.00;;;;;;10266322;28;20266;-83
2022/06/11 17:31:37;;;;;;;4.10;2.83;;;22.70;99.90;;;;;;10260567;28;20215;-83
2022/06/11 17:37:01;;;;;;;8.55;4.15;;;22.70;99.90;;;;;;10255034;28;20582;-84
2022/06/11 17:42:24;;;;;;;3.95;2.88;;;22.60;99.90;;;;;;10234236;29;20207;-84
2022/06/11 17:47:46;;;;;;;3.20;2.33;;;22.60;1.00;;;;;;10240995;29;20204;-83
2022/06/11 17:53:16;;;;;;;5.32;2.15;;;22.60;1.00;;;;;;10261570;28;20245;-84
2022/06/11 17:58:38;;;;;;;3.10;1.83;;;22.60;1.00;;;;;;10268149;28;20470;-84
2022/06/11 18:04:00;;;;;;;3.22;2.15;;;22.60;1.00;;;;;;10281542;28;20278;-83
2022/06/11 18:09:21;;;;;;;3.40;2.63;;;;;;;;;;10267235;28;20211;-84
2022/06/11 18:14:43;;;;;;;3.42;2.05;;;;;;;;;;10267749;28;20282;-83
2022/06/11 18:20:06;;;;;;;4.65;2.58;;;22.30;1.00;;;;;;10280625;28;20230;-84
2022/06/11 18:25:28;;;;;;;2.42;2.00;;;22.10;1.00;;;;;;10281064;28;20246;-83
2022/06/11 18:30:49;;;;;;;2.88;2.15;;;22.00;1.00;;;;;;10280520;28;20517;-83
2022/06/11 18:36:10;;;;;;;2.85;2.30;;;21.90;1.00;;;;;;10280204;28;20239;-83
2022/06/11 18:41:32;;;;;;;4.13;2.65;;;21.80;1.00;;;;;;10254357;28;20278;-83
2022/06/11 18:46:56;;;;;;;4.03;2.90;;;;;;;;;;10257047;28;20207;-82
2022/06/11 18:52:18;;;;;;;5.72;3.67;;;21.50;99.90;;;;;;10304336;28;20235;-83
2022/06/11 18:57:40;;;;;;;4.43;3.40;;;21.40;99.90;;;;;;10232632;29;20222;-83
2022/06/11 19:03:02;;;;;;;7.35;4.90;;;21.30;99.90;;;;;;10226581;29;20267;-83
2022/06/11 19:08:23;;;;;;;11.40;8.35;;;21.20;1.00;;;;;;10239438;29;20204;-83
2022/06/11 19:13:44;;;;;;;12.60;8.73;;;21.10;1.00;;;;;;10252874;28;20267;-83
2022/06/11 19:19:05;;;;;;;11.70;8.48;;;21.00;1.00;;;;;;10239100;29;20533;-83
2022/06/11 19:24:29;;;;;;;13.48;8.82;;;20.80;1.00;;;;;;10238936;29;20530;-83
2022/06/11 19:29:50;;;;;;;13.75;9.10;;;20.70;1.00;;;;;;10314311;28;20302;-83
2022/06/11 19:35:11;;;;;;;16.52;9.63;;;20.50;38.30;;;;;;10278157;28;20203;-84
2022/06/11 19:40:39;;;;;;;14.70;8.90;;;20.30;1.00;;;;;;10264340;28;20532;-83
2022/06/11 19:46:01;;;;;;;17.45;10.43;;;20.20;1.00;;;;;;10250603;28;20202;-83
2022/06/11 19:51:24;;;;;;;22.65;11.45;;;20.10;1.00;;;;;;10263427;28;20310;-83
2022/06/11 19:56:46;;;;;;;19.25;11.98;;;20.00;1.00;;;;;;10263318;28;20423;-83
2022/06/11 20:02:08;;;;;;;20.48;12.82;;;19.90;1.00;;;;;;10263610;28;20239;-84
2022/06/11 20:07:32;;;;;;;24.10;13.13;;;19.80;1.00;;;;;;10262972;28;20210;-84
2022/06/11 20:12:53;;;;;;;23.85;15.32;;;19.80;1.00;;;;;;10276795;28;20200;-84
2022/06/11 20:18:15;;;;;;;29.05;16.88;;;19.70;1.00;;;;;;10276604;28;20226;-83
2022/06/11 20:23:37;;;;;;;22.80;14.63;;;19.70;1.00;;;;;;10292441;28;20203;-84
2022/06/11 20:28:58;;;;;;;21.48;13.93;;;19.70;1.00;;;;;;10296882;28;20285;-83
2022/06/11 20:34:20;;;;;;;23.40;13.57;;;19.70;1.00;;;;;;10276114;28;20191;-84
2022/06/11 20:39:44;;;;;;;21.65;13.60;;;19.70;1.00;;;;;;10275859;28;20223;-84
2022/06/11 20:45:09;;;;;;;21.08;13.20;;;19.70;1.00;;;;;;10277188;28;20234;-83
2022/06/11 20:50:30;;;;;;;17.98;12.25;;;19.70;1.00;;;;;;10263269;28;20255;-84
2022/06/11 20:55:52;;;;;;;14.52;9.57;;;19.70;1.00;;;;;;10249430;28;20198;-84
2022/06/11 21:01:14;;;;;;;15.85;8.40;;;19.70;1.00;;;;;;10263674;28;20234;-83
2022/06/11 21:06:37;;;;;;;12.93;7.68;;;19.80;54.30;;;;;;10278076;28;20198;-82
2022/06/11 21:12:00;;;;;;;19.65;10.50;;;19.80;89.00;;;;;;10261591;28;20207;-82
2022/06/11 21:17:22;;;;;;;27.75;13.32;;;19.80;98.60;;;;;;10288597;28;20225;-82
2022/06/11 21:22:45;;;;;;;21.55;10.32;;;19.60;99.90;;;;;;10260716;28;20275;-82
2022/06/11 21:28:07;;;;;;;17.55;10.00;;;19.30;99.90;;;;;;10282071;28;20466;-81
2022/06/11 21:33:28;;;;;;;16.10;9.40;;;19.10;99.90;;;;;;10275638;28;20437;-82
2022/06/11 21:38:54;;;;;;;13.43;8.73;;;18.90;99.90;;;;;;10261616;29;20227;-82
2022/06/11 21:44:30;;;;;;;11.55;7.60;;;18.90;99.90;;;;;;10247064;28;20203;-82
2022/06/11 21:49:51;;;;;;;10.18;6.85;;;18.80;99.90;;;;;;10246987;28;20203;-82
2022/06/11 21:55:17;;;;;;;8.95;5.22;;;18.80;99.90;;;;;;10260269;28;20206;-82
2022/06/11 22:00:44;;;;;;;10.93;6.82;;;18.70;99.90;;;;;;10260015;28;20235;-82
2022/06/11 22:06:05;;;;;;;6.95;5.88;;;18.60;99.90;;;;;;10273570;28;20531;-82
2022/06/11 22:11:30;;;;;;;8.45;5.95;;;18.60;99.90;;;;;;10249481;28;20196;-82
2022/06/11 22:16:53;;;;;;;7.28;5.50;;;18.50;99.90;;;;;;10247110;28;20502;-82
2022/06/11 22:22:17;;;;;;;8.13;5.40;;;18.40;99.90;;;;;;10233962;29;20206;-83
2022/06/11 22:27:38;;;;;;;7.32;5.47;;;18.40;99.90;;;;;;10276615;28;20524;-82
2022/06/11 22:33:00;;;;;;;9.45;6.13;;;18.40;99.90;;;;;;10223118;29;20196;-82
2022/06/11 22:38:21;;;;;;;9.52;6.32;;;18.40;99.90;;;;;;10240237;29;20223;-82
2022/06/11 22:43:44;;;;;;;9.27;7.20;;;18.50;99.90;;;;;;10240146;29;20428;-82
2022/06/11 22:49:06;;;;;;;6.88;5.70;;;18.50;99.90;;;;;;10240101;29;20436;-83
2022/06/11 22:54:27;;;;;;;5.72;4.88;;;18.40;99.90;;;;;;10255840;28;20301;-82
2022/06/11 22:59:49;;;;;;;7.00;5.28;;;18.40;99.90;;;;;;10266146;28;20235;-82
2022/06/11 23:05:13;;;;;;;5.50;4.65;;;18.40;99.90;;;;;;10279453;28;20509;-82
2022/06/11 23:10:36;;;;;;;5.50;4.88;;;18.40;99.90;;;;;;10239164;29;20215;-82
2022/06/11 23:15:59;;;;;;;5.38;4.63;;;18.30;99.90;;;;;;10239967;29;20373;-82
2022/06/11 23:21:27;;;;;;;7.45;6.10;;;18.20;99.90;;;;;;10253168;28;20284;-82
2022/06/11 23:26:49;;;;;;;6.57;5.70;;;18.10;99.90;;;;;;10275262;28;20200;-83
2022/06/11 23:32:11;;;;;;;8.07;6.43;;;18.10;99.90;;;;;;10268373;28;20424;-82
2022/06/11 23:37:32;;;;;;;7.07;6.38;;;18.10;99.90;;;;;;10278132;28;20211;-82
2022/06/11 23:42:54;;;;;;;7.80;6.72;;;18.10;99.90;;;;;;10264045;28;20227;-83
2022/06/11 23:48:31;;;;;;;6.82;5.75;;;18.00;99.90;;;;;;10251010;28;20223;-82
2022/06/11 23:53:57;;;;;;;7.28;6.18;;;18.00;99.90;;;;;;10263675;28;20235;-81
2022/06/11 23:59:19;;;;;;;8.20;6.72;;;17.90;99.90;;;;;;10277106;28;20231;-82
